Rifton, New York
Current Conditions -  °F | °C
As of 11:53 PM on Saturday 25 Oct 2014 (Local Time) from KPOU Reporting Station
Scattered Clouds Scattered Clouds  
Wind Chill: 58°   Ceiling: Unl
Heat Index: 58°   Visibility: 10mi
Dew Point: 45°   Wind: 3mph
Humidity: 62%   Direction: 220°SW
Pressure: 29.55"   Gusts: NA
Location:  41.84°N, 74.04°W
Report Text: KPOU 260353Z AUTO 22003KT 10SM SCT065 14/07 A2955 RMK AO2 SLP002 T01440072 TSNO
Loading
Personal Weather Stations






























Interactive Weather Map
Tropical Storm Tracking
New forecast layout! Learn more

10-Day Weather Forecast

Advertisements
Track Severe Weather on mobile